Brandon, Wisconsin
Current Conditions -  °F | °C
As of 2:53 AM on Thursday 18 Dec 2014 (Local Time) from KFLD Reporting Station
Overcast Overcast  
Wind Chill: 24°   Ceiling: 1900
Heat Index: 24°   Visibility: 10mi
Dew Point: 17°   Wind: 0mph
Humidity: 75%   Direction: NA
Pressure: 30.26"   Gusts: NA
Location:  43.74°N, 88.78°W
Report Text: KFLD 180853Z AUTO 00000KT 10SM OVC019 M04/M08 A3026 RMK AO2 SLP261 T10441083 58001
Loading
Personal Weather Stations






























Interactive Weather Map New forecast layout! Learn more

10-Day Weather Forecast

Advertisements
Track Severe Weather on mobile